createdAt,value
2018-09-17T00:00:49.671Z,1020.31
2018-09-17T00:01:49.983Z,1020.34
2018-09-17T00:02:50.281Z,1020.33
2018-09-17T00:03:50.215Z,1020.36
2018-09-17T00:04:50.143Z,1020.34
2018-09-17T00:06:11.199Z,1020.36
2018-09-17T00:07:11.480Z,1020.33
2018-09-17T00:08:11.638Z,1020.30
2018-09-17T00:09:53.809Z,1020.29
2018-09-17T00:10:53.897Z,1020.29
2018-09-17T00:11:54.069Z,1020.30
2018-09-17T00:13:15.082Z,1020.28
2018-09-17T00:14:15.245Z,1020.27
2018-09-17T00:15:15.391Z,1020.26
2018-09-17T00:16:15.321Z,1020.30
2018-09-17T00:17:36.610Z,1020.30
2018-09-17T00:18:36.451Z,1020.37
2018-09-17T00:19:36.554Z,1020.36
2018-09-17T00:20:36.673Z,1020.34
2018-09-17T00:21:36.775Z,1020.39
2018-09-17T00:22:36.896Z,1020.39
2018-09-17T00:23:37.182Z,1020.39
2018-09-17T00:24:37.321Z,1020.39
2018-09-17T00:25:36.430Z,1020.34
2018-09-17T00:26:36.499Z,1020.34
2018-09-17T00:27:36.639Z,1020.33
2018-09-17T00:28:36.950Z,1020.33
2018-09-17T00:29:37.211Z,1020.34
2018-09-17T00:30:37.284Z,1020.29
2018-09-17T00:31:37.221Z,1020.30
2018-09-17T00:32:36.544Z,1020.27
2018-09-17T00:33:36.748Z,1020.24
2018-09-17T00:34:36.826Z,1020.22
2018-09-17T00:35:36.835Z,1020.22
2018-09-17T00:36:37.206Z,1020.21
2018-09-17T00:37:37.391Z,1020.25
2018-09-17T00:38:36.418Z,1020.24
2018-09-17T00:39:57.650Z,1020.24
2018-09-17T00:40:57.779Z,1020.27
2018-09-17T00:41:57.980Z,1020.25
2018-09-17T00:42:58.727Z,1020.23
2018-09-17T00:43:57.984Z,1020.25
2018-09-17T00:44:58.206Z,1020.22
2018-09-17T00:45:58.065Z,1020.24
2018-09-17T00:46:58.195Z,1020.21
2018-09-17T00:48:19.325Z,1020.24
2018-09-17T00:49:19.673Z,1020.21
2018-09-17T00:50:19.704Z,1020.20
2018-09-17T00:51:20.113Z,1020.18
2018-09-17T00:52:40.196Z,1020.19
2018-09-17T00:53:41.334Z,1020.18
2018-09-17T00:54:40.574Z,1020.17
2018-09-17T00:56:01.580Z,1020.15
2018-09-17T00:57:01.742Z,1020.13
2018-09-17T00:58:02.060Z,1020.11
2018-09-17T00:59:02.075Z,1020.13
2018-09-17T01:00:02.356Z,1020.07
2018-09-17T01:01:23.330Z,1020.04
2018-09-17T01:02:23.585Z,1020.08
2018-09-17T01:03:23.826Z,1020.07
2018-09-17T01:04:23.879Z,1020.06
2018-09-17T01:05:24.019Z,1020.07
2018-09-17T01:06:24.027Z,1020.05
2018-09-17T01:07:24.266Z,1020.07
2018-09-17T01:08:24.153Z,1020.05
2018-09-17T01:09:24.234Z,1020.03
2018-09-17T01:10:23.537Z,1020.02
2018-09-17T01:11:24.400Z,1019.98
2018-09-17T01:12:23.675Z,1019.97
2018-09-17T01:13:24.040Z,1019.95
2018-09-17T01:14:24.540Z,1019.94
2018-09-17T01:15:23.793Z,1019.91
2018-09-17T01:16:23.765Z,1019.91
2018-09-17T01:17:24.196Z,1019.92
2018-09-17T01:18:24.361Z,1019.93
2018-09-17T01:19:23.597Z,1019.95
2018-09-17T01:20:23.815Z,1019.93
2018-09-17T01:21:44.947Z,1019.93
2018-09-17T01:22:45.507Z,1019.93
2018-09-17T01:23:45.772Z,1019.90
2018-09-17T01:24:44.938Z,1019.93
2018-09-17T01:25:45.056Z,1019.91
2018-09-17T01:26:45.472Z,1019.90
2018-09-17T01:27:45.826Z,1019.92
2018-09-17T01:28:44.931Z,1019.85
2018-09-17T01:29:45.198Z,1019.82
2018-09-17T01:30:45.280Z,1019.81
2018-09-17T01:31:45.601Z,1019.83
2018-09-17T01:32:46.025Z,1019.77
2018-09-17T01:33:45.203Z,1019.71
2018-09-17T01:34:45.218Z,1019.73
2018-09-17T01:35:45.495Z,1019.71
2018-09-17T01:36:45.393Z,1019.68
2018-09-17T01:38:06.411Z,1019.72
2018-09-17T01:39:06.806Z,1019.72
2018-09-17T01:40:06.852Z,1019.74
2018-09-17T01:41:28.060Z,1019.73
2018-09-17T01:42:28.335Z,1019.79
2018-09-17T01:43:28.526Z,1019.80
2018-09-17T01:44:28.667Z,1019.79
2018-09-17T01:45:28.786Z,1019.82
2018-09-17T01:46:28.838Z,1019.81
2018-09-17T01:47:27.893Z,1019.78
2018-09-17T01:48:28.270Z,1019.77
2018-09-17T01:49:28.530Z,1019.75
2018-09-17T01:50:28.611Z,1019.72
2018-09-17T01:51:28.881Z,1019.72
2018-09-17T01:52:29.025Z,1019.68
2018-09-17T01:53:28.103Z,1019.66
2018-09-17T01:54:28.275Z,1019.72
2018-09-17T01:55:28.543Z,1019.74
2018-09-17T01:56:28.623Z,1019.79
2018-09-17T01:57:28.752Z,1019.73
2018-09-17T01:58:28.921Z,1019.72
2018-09-17T01:59:28.065Z,1019.74
2018-09-17T02:00:49.183Z,1019.70
2018-09-17T02:01:49.099Z,1019.72
2018-09-17T02:02:49.125Z,1019.71
2018-09-17T02:03:49.373Z,1019.69
2018-09-17T02:04:49.614Z,1019.73
2018-09-17T02:05:49.924Z,1019.74
2018-09-17T02:06:49.441Z,1019.74
2018-09-17T02:07:49.855Z,1019.77
2018-09-17T02:08:49.295Z,1019.84
2018-09-17T02:10:31.075Z,1019.87
2018-09-17T02:12:36.061Z,1019.90
2018-09-17T02:13:36.292Z,1019.93
2018-09-17T02:14:36.421Z,1019.96
2018-09-17T02:15:36.852Z,1019.97
2018-09-17T02:16:36.004Z,1019.99
2018-09-17T02:17:36.278Z,1020.02
2018-09-17T02:18:36.440Z,1020.05
2018-09-17T02:19:57.265Z,1020.00
2018-09-17T02:20:57.445Z,1020.07
2018-09-17T02:21:57.871Z,1020.09
2018-09-17T02:22:58.005Z,1020.09
2018-09-17T02:23:58.197Z,1020.09
2018-09-17T02:24:58.854Z,1020.12
2018-09-17T02:25:57.816Z,1020.16
2018-09-17T02:26:57.892Z,1020.16
2018-09-17T02:27:58.033Z,1020.17
2018-09-17T02:29:19.102Z,1020.16
2018-09-17T02:30:40.074Z,1020.14
2018-09-17T02:32:01.063Z,1020.12
2018-09-17T02:33:01.375Z,1020.05
2018-09-17T02:34:01.567Z,1020.08
2018-09-17T02:35:01.522Z,1020.05
2018-09-17T02:36:01.615Z,1020.03
2018-09-17T02:37:01.785Z,1020.06
2018-09-17T02:38:01.862Z,1020.11
2018-09-17T02:39:01.943Z,1020.10
2018-09-17T02:40:02.020Z,1020.11
2018-09-17T02:41:01.362Z,1020.11
2018-09-17T02:42:01.770Z,1020.13
2018-09-17T02:43:01.918Z,1020.11
2018-09-17T02:44:01.097Z,1020.12
2018-09-17T02:45:01.427Z,1020.09
2018-09-17T02:46:01.465Z,1020.11
2018-09-17T02:47:01.635Z,1020.13
2018-09-17T02:48:01.749Z,1020.13
2018-09-17T02:49:22.611Z,1020.13
2018-09-17T02:50:22.946Z,1020.14
2018-09-17T02:51:44.148Z,1020.12
2018-09-17T02:52:44.528Z,1020.13
2018-09-17T02:54:05.614Z,1020.16
2018-09-17T02:55:05.720Z,1020.11
2018-09-17T02:56:28.039Z,1020.09
2018-09-17T02:57:49.020Z,1020.07
2018-09-17T02:58:49.121Z,1020.10
2018-09-17T02:59:49.355Z,1020.05
2018-09-17T03:00:49.314Z,1020.07
2018-09-17T03:01:49.612Z,1020.03
2018-09-17T03:02:49.667Z,1020.07
2018-09-17T03:03:49.754Z,1020.09
2018-09-17T03:04:48.948Z,1020.09
2018-09-17T03:05:49.332Z,1020.06
2018-09-17T03:06:49.567Z,1020.07
2018-09-17T03:07:49.771Z,1020.06
2018-09-17T03:08:48.930Z,1020.12
2018-09-17T03:09:49.163Z,1020.06
2018-09-17T03:10:49.299Z,1020.08
2018-09-17T03:11:49.474Z,1020.07
2018-09-17T03:12:49.641Z,1020.06
2018-09-17T03:13:49.949Z,1020.07
2018-09-17T03:14:49.149Z,1020.06
2018-09-17T03:15:49.218Z,1020.04
2018-09-17T03:16:49.406Z,1020.03
2018-09-17T03:17:49.584Z,1020.04
2018-09-17T03:18:49.563Z,1020.08
2018-09-17T03:19:49.631Z,1020.07
2018-09-17T03:20:49.761Z,1020.08
2018-09-17T03:21:48.835Z,1020.06
2018-09-17T03:22:48.724Z,1020.12
2018-09-17T03:23:49.836Z,1020.06
2018-09-17T03:24:49.039Z,1020.10
2018-09-17T03:25:49.283Z,1020.10
2018-09-17T03:26:49.493Z,1020.11
2018-09-17T03:28:10.404Z,1020.11
2018-09-17T03:29:10.780Z,1020.10
2018-09-17T03:30:11.216Z,1020.11
2018-09-17T03:31:10.523Z,1020.09
2018-09-17T03:32:10.746Z,1020.08
2018-09-17T03:33:11.099Z,1020.05
2018-09-17T03:34:11.257Z,1020.07
2018-09-17T03:35:10.541Z,1020.08
2018-09-17T03:36:10.570Z,1020.05
2018-09-17T03:37:10.581Z,1020.11
2018-09-17T03:38:31.607Z,1020.11
2018-09-17T03:39:31.695Z,1020.08
2018-09-17T03:40:31.977Z,1020.09
2018-09-17T03:41:53.053Z,1020.08
2018-09-17T03:42:53.258Z,1020.06
2018-09-17T03:43:53.409Z,1020.07
2018-09-17T03:44:53.693Z,1020.05
2018-09-17T03:45:53.879Z,1020.05
2018-09-17T03:46:53.246Z,1020.01
2018-09-17T03:48:14.420Z,1020.01
2018-09-17T03:49:14.564Z,1020.00
2018-09-17T03:50:14.582Z,1020.00
2018-09-17T03:51:14.733Z,1019.96
2018-09-17T03:52:15.015Z,1019.97
2018-09-17T03:53:15.179Z,1019.98
2018-09-17T03:54:35.123Z,1019.98
2018-09-17T03:55:35.385Z,1020.02
2018-09-17T03:56:35.584Z,1020.02
2018-09-17T03:57:35.845Z,1020.01
2018-09-17T03:58:35.988Z,1020.02
2018-09-17T03:59:35.231Z,1020.05
2018-09-17T04:00:35.690Z,1020.05
2018-09-17T04:01:36.033Z,1020.00
2018-09-17T04:02:35.372Z,1020.03
2018-09-17T04:03:35.432Z,1020.02
2018-09-17T04:04:35.573Z,1020.03
2018-09-17T04:05:35.732Z,1020.03
2018-09-17T04:06:56.760Z,1020.06
2018-09-17T04:07:56.911Z,1020.03
2018-09-17T04:08:57.216Z,1020.00
2018-09-17T04:10:18.380Z,1020.00
2018-09-17T04:11:18.550Z,1020.00
2018-09-17T04:12:18.807Z,1020.02
2018-09-17T04:13:18.916Z,1019.99
2018-09-17T04:14:18.987Z,1020.04
2018-09-17T04:15:19.355Z,1020.07
2018-09-17T04:16:39.270Z,1020.09
2018-09-17T04:17:39.606Z,1020.12
2018-09-17T04:19:00.611Z,1020.15
2018-09-17T04:20:00.701Z,1020.13
2018-09-17T04:21:00.994Z,1020.11
2018-09-17T04:22:01.255Z,1020.13
2018-09-17T04:23:01.341Z,1020.14
2018-09-17T04:24:00.789Z,1020.14
2018-09-17T04:25:00.996Z,1020.17
2018-09-17T04:26:01.251Z,1020.20
2018-09-17T04:27:01.614Z,1020.18
2018-09-17T04:28:00.849Z,1020.11
2018-09-17T04:29:01.246Z,1020.18
2018-09-17T04:30:43.632Z,1020.17
2018-09-17T04:31:43.873Z,1020.17
2018-09-17T04:32:44.244Z,1020.15
2018-09-17T04:33:44.508Z,1020.16
2018-09-17T04:34:43.946Z,1020.17
2018-09-17T04:36:05.021Z,1020.16
2018-09-17T04:37:05.352Z,1020.20
2018-09-17T04:38:05.466Z,1020.19
2018-09-17T04:39:26.564Z,1020.25
2018-09-17T04:40:26.908Z,1020.26
2018-09-17T04:41:27.071Z,1020.28
2018-09-17T04:42:27.184Z,1020.35
2018-09-17T04:43:27.398Z,1020.31
2018-09-17T04:44:26.741Z,1020.30
2018-09-17T04:45:27.088Z,1020.28
2018-09-17T04:46:27.453Z,1020.28
2018-09-17T04:47:26.646Z,1020.28
2018-09-17T04:48:27.149Z,1020.27
2018-09-17T04:49:27.151Z,1020.27
2018-09-17T04:50:27.330Z,1020.27
2018-09-17T04:51:26.509Z,1020.31
2018-09-17T04:52:26.762Z,1020.35
2018-09-17T04:53:27.125Z,1020.32
2018-09-17T04:54:26.489Z,1020.33
2018-09-17T04:55:26.747Z,1020.35
2018-09-17T04:56:26.881Z,1020.32
2018-09-17T04:57:27.193Z,1020.32
2018-09-17T04:58:26.472Z,1020.31
2018-09-17T04:59:26.825Z,1020.34
2018-09-17T05:01:29.985Z,1020.30
2018-09-17T05:02:29.963Z,1020.33
2018-09-17T05:03:30.314Z,1020.33
2018-09-17T05:04:30.598Z,1020.34
2018-09-17T05:05:30.811Z,1020.30
2018-09-17T05:06:30.980Z,1020.33
2018-09-17T05:07:30.223Z,1020.35
2018-09-17T05:08:30.404Z,1020.31
2018-09-17T05:09:30.561Z,1020.36
2018-09-17T05:10:30.774Z,1020.34
2018-09-17T05:11:31.110Z,1020.34
2018-09-17T05:13:33.239Z,1020.33
2018-09-17T05:14:33.589Z,1020.36
2018-09-17T05:15:33.705Z,1020.38
2018-09-17T05:16:33.678Z,1020.41
2018-09-17T05:17:33.858Z,1020.41
2018-09-17T05:18:34.258Z,1020.41
2018-09-17T05:20:15.173Z,1020.39
2018-09-17T05:21:36.137Z,1020.41
2018-09-17T05:22:36.363Z,1020.41
2018-09-17T05:23:36.636Z,1020.38
2018-09-17T05:24:36.736Z,1020.37
2018-09-17T05:25:57.971Z,1020.33
2018-09-17T05:27:19.312Z,1020.34
2018-09-17T05:28:19.396Z,1020.33
2018-09-17T05:29:19.745Z,1020.30
2018-09-17T05:30:19.879Z,1020.28
2018-09-17T05:31:20.239Z,1020.28
2018-09-17T05:32:19.404Z,1020.25
2018-09-17T05:33:19.469Z,1020.26
2018-09-17T05:34:40.520Z,1020.25
2018-09-17T05:35:40.782Z,1020.28
2018-09-17T05:36:41.135Z,1020.27
2018-09-17T05:37:41.149Z,1020.29
2018-09-17T05:39:02.792Z,1020.35
2018-09-17T05:40:03.152Z,1020.32
2018-09-17T05:41:03.260Z,1020.37
2018-09-17T05:42:03.659Z,1020.40
2018-09-17T05:43:03.187Z,1020.41
2018-09-17T05:44:03.596Z,1020.39
2018-09-17T05:45:02.734Z,1020.41
2018-09-17T05:46:02.936Z,1020.43
2018-09-17T05:47:03.102Z,1020.44
2018-09-17T05:48:03.552Z,1020.41
2018-09-17T05:49:02.653Z,1020.40
2018-09-17T05:50:03.843Z,1020.41
2018-09-17T05:51:24.396Z,1020.43
2018-09-17T05:52:24.447Z,1020.43
2018-09-17T05:53:24.375Z,1020.44
2018-09-17T05:54:24.422Z,1020.45
2018-09-17T05:55:45.647Z,1020.50
2018-09-17T05:57:06.938Z,1020.53
2018-09-17T05:58:07.296Z,1020.51
2018-09-17T05:59:07.605Z,1020.55
2018-09-17T06:00:06.765Z,1020.51
2018-09-17T06:01:07.197Z,1020.34
2018-09-17T06:02:07.649Z,1020.53
2018-09-17T06:03:07.805Z,1020.52
2018-09-17T06:04:07.416Z,1020.47
2018-09-17T06:05:08.209Z,1020.46
2018-09-17T06:06:08.348Z,1020.49
2018-09-17T06:07:11.977Z,1020.53
2018-09-17T06:08:07.303Z,1020.41
2018-09-17T06:09:08.276Z,1020.43
2018-09-17T06:10:07.358Z,1020.45
2018-09-17T06:11:29.364Z,1020.45
2018-09-17T06:12:28.767Z,1020.47
2018-09-17T06:13:29.253Z,1020.47
2018-09-17T06:14:29.254Z,1020.48
2018-09-17T06:15:30.075Z,1020.52
2018-09-17T06:16:31.680Z,1020.55
2018-09-17T06:17:29.149Z,1020.56
2018-09-17T06:18:50.417Z,1020.53
2018-09-17T06:19:51.255Z,1020.53
2018-09-17T06:20:50.782Z,1020.55
2018-09-17T06:21:51.175Z,1020.54
2018-09-17T06:22:51.184Z,1020.53
2018-09-17T06:23:51.366Z,1020.54
2018-09-17T06:24:50.595Z,1020.56
2018-09-17T06:25:50.943Z,1020.57
2018-09-17T06:26:51.238Z,1020.61
2018-09-17T06:27:51.262Z,1020.56
2018-09-17T06:28:50.584Z,1020.62
2018-09-17T06:29:50.991Z,1020.61
2018-09-17T06:30:52.364Z,1020.61
2018-09-17T06:31:50.613Z,1020.62
2018-09-17T06:32:50.841Z,1020.63
2018-09-17T06:33:51.159Z,1020.65
2018-09-17T06:34:50.819Z,1020.65
2018-09-17T06:35:51.379Z,1020.66
2018-09-17T06:36:50.814Z,1020.63
2018-09-17T06:38:12.331Z,1020.59
2018-09-17T06:39:12.660Z,1020.58
2018-09-17T06:40:12.808Z,1020.60
2018-09-17T06:41:13.038Z,1020.62
2018-09-17T06:42:13.174Z,1020.65
2018-09-17T06:43:13.646Z,1020.65
2018-09-17T06:44:12.952Z,1020.62
2018-09-17T06:45:13.384Z,1020.66
2018-09-17T06:46:12.671Z,1020.66
2018-09-17T06:47:12.962Z,1020.66
2018-09-17T06:48:12.950Z,1020.63
2018-09-17T06:49:55.401Z,1020.63
2018-09-17T06:50:55.968Z,1020.67
2018-09-17T06:51:57.031Z,1020.68
2018-09-17T06:52:55.404Z,1020.58
2018-09-17T06:53:55.665Z,1020.62
2018-09-17T06:54:55.954Z,1020.63
2018-09-17T06:55:56.272Z,1020.63
2018-09-17T06:56:55.686Z,1020.63
2018-09-17T06:57:56.147Z,1020.61
2018-09-17T06:58:55.438Z,1020.65
2018-09-17T06:59:55.796Z,1020.60
2018-09-17T07:01:17.316Z,1020.63
2018-09-17T07:02:17.523Z,1020.61
2018-09-17T07:03:18.063Z,1020.55
2018-09-17T07:04:17.567Z,1020.51
2018-09-17T07:05:17.737Z,1020.49
2018-09-17T07:06:18.128Z,1020.47
2018-09-17T07:07:17.626Z,1020.44
2018-09-17T07:08:17.864Z,1020.46
2018-09-17T07:09:17.116Z,1020.43
2018-09-17T07:10:17.573Z,1020.47
2018-09-17T07:11:17.794Z,1020.44
2018-09-17T07:12:18.131Z,1020.43
2018-09-17T07:13:17.601Z,1020.47
2018-09-17T07:14:17.998Z,1020.45
2018-09-17T07:15:17.474Z,1020.43
2018-09-17T07:16:17.982Z,1020.41
2018-09-17T07:17:30.127Z,1020.42
2018-09-17T07:18:19.624Z,1020.43
2018-09-17T07:19:39.738Z,1020.38
2018-09-17T07:20:40.769Z,1020.39
2018-09-17T07:21:40.192Z,1020.37
2018-09-17T07:22:39.772Z,1020.33
2018-09-17T07:23:40.081Z,1020.32
2018-09-17T07:24:40.296Z,1020.31
2018-09-17T07:25:39.484Z,1020.30
2018-09-17T07:27:22.336Z,1020.31
2018-09-17T07:28:22.801Z,1020.32
2018-09-17T07:29:43.595Z,1020.25
2018-09-17T07:30:43.844Z,1020.27
2018-09-17T07:31:44.226Z,1020.30
2018-09-17T07:32:43.479Z,1020.31
2018-09-17T07:33:44.151Z,1020.31
2018-09-17T07:34:43.524Z,1020.34
2018-09-17T07:35:43.848Z,1020.37
2018-09-17T07:36:44.943Z,1020.39
2018-09-17T07:38:05.565Z,1020.41
2018-09-17T07:39:06.012Z,1020.47
2018-09-17T07:40:06.356Z,1020.44
2018-09-17T07:41:05.804Z,1020.48
2018-09-17T07:42:06.258Z,1020.46
2018-09-17T07:43:05.694Z,1020.46
2018-09-17T07:44:06.200Z,1020.46
2018-09-17T07:45:06.519Z,1020.47
2018-09-17T07:46:05.991Z,1020.45
2018-09-17T07:47:07.551Z,1020.49
2018-09-17T07:48:05.930Z,1020.49
2018-09-17T07:49:06.334Z,1020.49
2018-09-17T07:50:06.741Z,1020.47
2018-09-17T07:51:06.014Z,1020.45
2018-09-17T07:52:06.611Z,1020.50
2018-09-17T07:53:07.875Z,1020.54
2018-09-17T07:54:06.473Z,1020.51
2018-09-17T07:55:07.026Z,1020.50
2018-09-17T07:56:06.649Z,1020.53
2018-09-17T07:57:06.042Z,1020.50
2018-09-17T07:58:06.291Z,1020.49
2018-09-17T07:59:27.110Z,1020.49
2018-09-17T08:00:27.541Z,1020.51
2018-09-17T08:01:27.148Z,1020.49
2018-09-17T08:02:48.774Z,1020.48
2018-09-17T08:04:10.127Z,1020.41
2018-09-17T08:05:31.659Z,1020.44
2018-09-17T08:06:53.299Z,1020.38
2018-09-17T08:07:53.944Z,1020.39
2018-09-17T08:09:56.370Z,1020.42
2018-09-17T08:10:56.812Z,1020.37
2018-09-17T08:11:57.256Z,1020.38
2018-09-17T08:12:56.513Z,1020.37
2018-09-17T08:13:56.937Z,1020.36
2018-09-17T08:14:57.318Z,1020.37
2018-09-17T08:16:17.854Z,1020.36
2018-09-17T08:17:18.359Z,1020.34
2018-09-17T08:18:18.656Z,1020.31
2018-09-17T08:19:17.973Z,1020.27
2018-09-17T08:20:18.639Z,1020.26
2018-09-17T08:21:18.129Z,1020.25
2018-09-17T08:22:18.539Z,1020.26
2018-09-17T08:23:18.091Z,1020.23
2018-09-17T08:24:39.336Z,1020.21
2018-09-17T08:26:00.945Z,1020.27
2018-09-17T08:27:02.900Z,1020.25
2018-09-17T08:28:01.422Z,1020.31
2018-09-17T08:29:01.529Z,1020.29
2018-09-17T08:30:01.009Z,1020.33
2018-09-17T08:31:01.690Z,1020.42
2018-09-17T08:32:22.285Z,1020.37
2018-09-17T08:33:22.867Z,1020.38
2018-09-17T08:34:23.206Z,1020.38
2018-09-17T08:35:22.528Z,1020.38
2018-09-17T08:36:22.878Z,1020.39
2018-09-17T08:37:22.484Z,1020.35
2018-09-17T08:38:23.080Z,1020.37
2018-09-17T08:39:22.488Z,1020.38
2018-09-17T08:40:23.232Z,1020.34
2018-09-17T08:41:22.563Z,1020.35
2018-09-17T08:42:23.022Z,1020.35
2018-09-17T08:43:22.334Z,1020.36
2018-09-17T08:44:22.776Z,1020.32
2018-09-17T08:45:23.465Z,1020.36
2018-09-17T08:46:44.048Z,1020.39
2018-09-17T08:48:05.578Z,1020.39
2018-09-17T08:49:06.143Z,1020.43
2018-09-17T08:50:06.617Z,1020.37
2018-09-17T08:51:06.088Z,1020.35
2018-09-17T08:52:06.319Z,1020.37
2018-09-17T08:53:05.647Z,1020.33
2018-09-17T08:54:06.090Z,1020.33
2018-09-17T08:55:06.363Z,1020.38
2018-09-17T08:56:05.534Z,1020.34
2018-09-17T08:57:05.678Z,1020.29
2018-09-17T08:58:05.972Z,1020.33
2018-09-17T08:59:06.049Z,1020.32
2018-09-17T09:00:06.571Z,1020.33
2018-09-17T09:01:27.528Z,1020.30
2018-09-17T09:02:27.935Z,1020.32
2018-09-17T09:03:28.506Z,1020.29
2018-09-17T09:04:49.149Z,1020.29
2018-09-17T09:05:49.829Z,1020.27
2018-09-17T09:07:10.876Z,1020.28
2018-09-17T09:08:11.096Z,1020.32
2018-09-17T09:09:11.209Z,1020.29
2018-09-17T09:10:11.819Z,1020.29
2018-09-17T09:11:13.343Z,1020.27
2018-09-17T09:12:11.668Z,1020.33
2018-09-17T09:13:11.099Z,1020.32
2018-09-17T09:14:11.366Z,1020.36
2018-09-17T09:15:32.881Z,1020.30
2018-09-17T09:16:33.508Z,1020.29
2018-09-17T09:17:32.935Z,1020.30
2018-09-17T09:18:33.374Z,1020.30
2018-09-17T09:19:55.388Z,1020.32
2018-09-17T09:21:21.420Z,1020.29
2018-09-17T09:22:21.687Z,1020.27
2018-09-17T09:23:42.024Z,1020.28
2018-09-17T09:24:42.344Z,1020.27
2018-09-17T09:25:43.244Z,1020.22
2018-09-17T09:27:03.603Z,1020.19
2018-09-17T09:28:04.221Z,1020.23
2018-09-17T09:29:04.515Z,1020.20
2018-09-17T09:31:10.543Z,1020.19
2018-09-17T09:32:10.803Z,1020.19
2018-09-17T09:33:11.365Z,1020.25
2018-09-17T09:34:10.355Z,1020.24
2018-09-17T09:35:10.694Z,1020.24
2018-09-17T09:36:11.199Z,1020.21
2018-09-17T09:37:31.895Z,1020.22
2018-09-17T09:38:32.122Z,1020.25
2018-09-17T09:39:32.450Z,1020.26
2018-09-17T09:40:38.023Z,1020.21
2018-09-17T09:41:32.154Z,1020.23
2018-09-17T09:42:32.446Z,1020.24
2018-09-17T09:43:32.088Z,1020.23
2018-09-17T09:44:32.438Z,1020.29
2018-09-17T09:45:32.743Z,1020.33
2018-09-17T09:46:32.218Z,1020.31
2018-09-17T09:47:32.480Z,1020.27
2018-09-17T09:49:14.872Z,1020.28
2018-09-17T09:50:15.008Z,1020.27
2018-09-17T09:51:16.181Z,1020.25
2018-09-17T09:52:15.462Z,1020.27
2018-09-17T09:53:15.945Z,1020.22
2018-09-17T09:54:15.326Z,1020.21
2018-09-17T09:55:15.485Z,1020.21
2018-09-17T09:56:16.056Z,1020.23
2018-09-17T09:57:15.331Z,1020.22
2018-09-17T09:58:16.287Z,1020.18
2018-09-17T09:59:15.484Z,1020.18
2018-09-17T10:00:16.685Z,1020.16
2018-09-17T10:01:15.119Z,1020.16
2018-09-17T10:02:15.232Z,1020.11
2018-09-17T10:03:15.831Z,1020.07
2018-09-17T10:04:57.463Z,1020.12
2018-09-17T10:06:18.877Z,1020.03
2018-09-17T10:07:19.111Z,1020.04
2018-09-17T10:08:20.094Z,1020.07
2018-09-17T10:09:19.470Z,1019.94
2018-09-17T10:10:19.803Z,1020.00
2018-09-17T10:11:19.049Z,1020.02
2018-09-17T10:12:19.439Z,1020.03
2018-09-17T10:13:18.956Z,1019.98
2018-09-17T10:14:19.306Z,1020.01
2018-09-17T10:15:21.890Z,1019.99
2018-09-17T10:16:19.920Z,1020.01
2018-09-17T10:17:19.185Z,1020.01
2018-09-17T10:18:40.493Z,1019.97
2018-09-17T10:19:40.575Z,1019.98
2018-09-17T10:20:40.939Z,1019.99
2018-09-17T10:21:41.534Z,1019.98
2018-09-17T10:22:40.846Z,1019.93
2018-09-17T10:23:41.581Z,1019.97
2018-09-17T10:24:41.204Z,1019.91
2018-09-17T10:25:41.613Z,1019.95
2018-09-17T10:26:40.996Z,1019.92
2018-09-17T10:28:02.601Z,1019.95
2018-09-17T10:29:02.913Z,1019.93
2018-09-17T10:30:24.786Z,1019.94
2018-09-17T10:31:25.731Z,1019.93
2018-09-17T10:32:25.008Z,1019.92
2018-09-17T10:33:46.931Z,1019.89
2018-09-17T10:34:47.380Z,1019.93
2018-09-17T10:35:46.701Z,1019.95
2018-09-17T10:36:47.026Z,1019.93
2018-09-17T10:37:47.221Z,1019.95
2018-09-17T10:38:47.621Z,1019.93
2018-09-17T10:39:46.950Z,1019.94
2018-09-17T10:40:47.243Z,1019.94
2018-09-17T10:41:47.456Z,1019.93
2018-09-17T10:42:46.805Z,1019.89
2018-09-17T10:43:47.140Z,1019.87
2018-09-17T10:44:47.548Z,1019.88
2018-09-17T10:45:46.909Z,1019.87
2018-09-17T10:46:47.391Z,1019.89
2018-09-17T10:47:47.609Z,1019.85
2018-09-17T10:48:46.730Z,1019.84
2018-09-17T10:49:46.956Z,1019.82
2018-09-17T10:50:47.290Z,1019.80
2018-09-17T10:51:46.865Z,1019.81
2018-09-17T10:52:47.141Z,1019.77
2018-09-17T10:53:48.521Z,1019.72
2018-09-17T10:54:47.071Z,1019.73
2018-09-17T10:55:47.362Z,1019.74
2018-09-17T10:56:46.792Z,1019.69
2018-09-17T10:57:47.364Z,1019.67
2018-09-17T10:59:32.310Z,1019.64
2018-09-17T11:00:31.629Z,1019.59
2018-09-17T11:01:32.110Z,1019.63
2018-09-17T11:02:31.290Z,1019.61
2018-09-17T11:03:31.412Z,1019.60
2018-09-17T11:04:31.957Z,1019.58
2018-09-17T11:05:32.412Z,1019.64
2018-09-17T11:06:31.726Z,1019.64
2018-09-17T11:07:32.052Z,1019.58
2018-09-17T11:09:14.922Z,1019.55
2018-09-17T11:10:15.448Z,1019.53
2018-09-17T11:11:15.731Z,1019.50
2018-09-17T11:12:14.900Z,1019.52
2018-09-17T11:13:36.527Z,1019.51
2018-09-17T11:14:36.523Z,1019.49
2018-09-17T11:15:36.736Z,1019.50
2018-09-17T11:16:37.548Z,1019.50
2018-09-17T11:17:37.569Z,1019.48
2018-09-17T11:18:36.733Z,1019.53
2018-09-17T11:19:37.188Z,1019.51
2018-09-17T11:20:36.533Z,1019.49
2018-09-17T11:21:37.159Z,1019.51
2018-09-17T11:22:37.570Z,1019.52
2018-09-17T11:23:36.815Z,1019.54
2018-09-17T11:24:37.046Z,1019.50
2018-09-17T11:25:37.292Z,1019.51
2018-09-17T11:26:36.360Z,1019.48
2018-09-17T11:27:36.988Z,1019.48
2018-09-17T11:28:38.217Z,1019.45
2018-09-17T11:30:39.462Z,1019.49
2018-09-17T11:31:39.793Z,1019.52
2018-09-17T11:32:40.132Z,1019.51
2018-09-17T11:33:39.656Z,1019.44
2018-09-17T11:34:40.047Z,1019.45
2018-09-17T11:35:40.208Z,1019.47
2018-09-17T11:36:40.564Z,1019.46
2018-09-17T11:37:39.787Z,1019.42
2018-09-17T11:38:39.937Z,1019.42
2018-09-17T11:39:40.303Z,1019.42
2018-09-17T11:40:39.912Z,1019.39
2018-09-17T11:41:41.131Z,1019.36
2018-09-17T11:42:39.473Z,1019.39
2018-09-17T11:43:39.925Z,1019.34
2018-09-17T11:45:22.597Z,1019.38
2018-09-17T11:46:23.695Z,1019.37
2018-09-17T11:47:23.312Z,1019.30
2018-09-17T11:48:23.580Z,1019.30
2018-09-17T11:49:44.118Z,1019.36
2018-09-17T11:50:44.386Z,1019.35
2018-09-17T11:51:44.809Z,1019.35
2018-09-17T11:52:44.268Z,1019.33
2018-09-17T11:53:44.698Z,1019.32
2018-09-17T11:54:44.039Z,1019.33
2018-09-17T11:55:44.435Z,1019.31
2018-09-17T11:56:44.861Z,1019.27
2018-09-17T11:57:43.874Z,1019.28
2018-09-17T11:58:44.159Z,1019.28
2018-09-17T11:59:44.427Z,1019.30
2018-09-17T12:01:06.441Z,1019.27
2018-09-17T12:02:06.129Z,1019.29
2018-09-17T12:03:07.119Z,1019.28
2018-09-17T12:04:06.557Z,1019.27
2018-09-17T12:05:06.755Z,1019.27
2018-09-17T12:06:06.263Z,1019.26
2018-09-17T12:07:06.674Z,1019.24
2018-09-17T12:08:06.043Z,1019.18
2018-09-17T12:09:06.436Z,1019.18
2018-09-17T12:10:06.715Z,1019.16
2018-09-17T12:11:06.095Z,1019.15
2018-09-17T12:12:06.957Z,1019.14
2018-09-17T12:13:06.297Z,1019.16
2018-09-17T12:14:06.612Z,1019.17
2018-09-17T12:15:27.121Z,1019.10
2018-09-17T12:16:27.676Z,1019.10
2018-09-17T12:17:27.093Z,1019.11
2018-09-17T12:18:48.555Z,1019.11
2018-09-17T12:19:48.736Z,1019.09
2018-09-17T12:21:33.596Z,1019.14
2018-09-17T12:22:33.251Z,1019.06
2018-09-17T12:23:54.555Z,1019.05
2018-09-17T12:24:55.020Z,1019.08
2018-09-17T12:25:55.524Z,1019.11
2018-09-17T12:26:54.893Z,1019.07
2018-09-17T12:27:55.353Z,1019.07
2018-09-17T12:28:54.814Z,1019.01
2018-09-17T12:29:55.199Z,1019.01
2018-09-17T12:30:54.716Z,1018.97
2018-09-17T12:31:55.806Z,1018.99
2018-09-17T12:32:55.996Z,1018.99
2018-09-17T12:34:16.439Z,1018.97
2018-09-17T12:35:16.904Z,1018.97
2018-09-17T12:36:17.462Z,1018.91
2018-09-17T12:37:16.909Z,1018.91
2018-09-17T12:38:17.294Z,1018.90
2018-09-17T12:39:16.732Z,1018.89
2018-09-17T12:40:17.180Z,1018.92
2018-09-17T12:41:37.822Z,1018.88
2018-09-17T12:43:20.569Z,1018.89
2018-09-17T12:44:21.772Z,1018.89
2018-09-17T12:45:20.937Z,1018.90
2018-09-17T12:46:21.328Z,1018.81
2018-09-17T12:47:20.579Z,1018.88
2018-09-17T12:48:20.967Z,1018.85
2018-09-17T12:49:22.395Z,1018.85
2018-09-17T12:50:20.711Z,1018.85